aviador You're here:

KWLD Decoded Metar

WINFIELD/ARKANSA in KS, USA
Report Time2018-01-18 12:54:00
UTC Time2018-01-18 14:00:52
Flight Rules Old
Wind180° at 09 kt
W.Decomp.*RWY 17: 9.0 kt HW 0.6 kt RCW
RWY 13: 6.5 kt HW 6.3 kt RCW
W.Rank180° ranks 3
Current wind is below 180° avg. (11.6)
Visibility9999 m
Phenomena:N/A
Clouds:N/A
Expected CloudBase > 2,800 ft AGL from Temp-Dew spread
CeilingNone
Temp-7°C (ISA -20)
Dew Point-14°C (58% RH)
AAT-13.5°C
QNH1027 hPa
Density Alt-1,739 ft
Elevation1,148 ft
Report Wrong Elevation
Raw Report
KWLD 181254Z AUTO 18009KT 10SM CLR M07/M14 A3032 RMK AO2 SLP282
T10671139=

Extra information for KWLD:More info

Metar Taf Metar & Taf Last 4 Metars F.Rules Stats Wind Profile Meteogram Temp Stats Airport Information Weather charts Add Link Nearby VenuesMetar ALERT Operation Metar Decoded Social comments

AIRNAV info for KWLD